createdAt,value
2019-05-12T00:01:13.471Z,101015.09
2019-05-12T00:03:40.298Z,101015.56
2019-05-12T00:06:08.770Z,101024.04
2019-05-12T00:08:33.915Z,101026.64
2019-05-12T00:11:00.739Z,101022.36
2019-05-12T00:13:27.945Z,101032.62
2019-05-12T00:15:54.386Z,101034.27
2019-05-12T00:18:21.182Z,101039.59
2019-05-12T00:20:47.986Z,101045.72
2019-05-12T00:23:25.069Z,101047.36
2019-05-12T00:25:41.607Z,101053.97
2019-05-12T00:28:08.426Z,101053.63
2019-05-12T00:30:38.911Z,101052.12
2019-05-12T00:33:03.880Z,101054.98
2019-05-12T00:35:30.690Z,101058.16
2019-05-12T00:37:57.859Z,101059.45
2019-05-12T00:40:24.318Z,101056.20
2019-05-12T00:42:51.130Z,101064.38
2019-05-12T00:45:18.152Z,101072.55
2019-05-12T00:47:44.730Z,101067.13
2019-05-12T00:50:11.542Z,101075.68
2019-05-12T00:52:38.738Z,101081.08
2019-05-12T00:55:07.673Z,101081.00
2019-05-12T00:57:32.042Z,101081.44
2019-05-12T00:59:58.838Z,101083.20
2019-05-12T01:02:25.642Z,101083.77
2019-05-12T01:04:52.451Z,101089.34
2019-05-12T01:07:19.266Z,101093.12
2019-05-12T01:09:46.075Z,101093.17
2019-05-12T01:12:12.991Z,101101.09
2019-05-12T01:14:39.802Z,101098.72
2019-05-12T01:17:08.410Z,101104.75
2019-05-12T01:19:33.483Z,101104.62
2019-05-12T01:22:00.298Z,101107.31
2019-05-12T01:24:28.151Z,101105.66
2019-05-12T01:26:53.935Z,101106.70
2019-05-12T01:29:20.742Z,101110.39
2019-05-12T01:31:53.269Z,101108.80
2019-05-12T01:34:20.080Z,101107.91
2019-05-12T01:36:48.314Z,101117.23
2019-05-12T01:39:13.704Z,101117.34
2019-05-12T01:41:40.517Z,101125.34
2019-05-12T01:44:08.862Z,101129.27
2019-05-12T01:46:34.139Z,101130.84
2019-05-12T01:49:00.943Z,101134.05
2019-05-12T01:51:28.436Z,101132.19
2019-05-12T01:54:08.649Z,101138.55
2019-05-12T01:56:21.410Z,101138.36
2019-05-12T01:58:48.484Z,101139.55
2019-05-12T02:01:15.046Z,101148.36
2019-05-12T02:03:41.858Z,101152.34
2019-05-12T02:06:11.774Z,101152.17
2019-05-12T02:08:43.177Z,101162.52
2019-05-12T02:11:18.097Z,101159.45
2019-05-12T02:13:42.551Z,101163.75
2019-05-12T02:16:09.379Z,101173.51
2019-05-12T02:18:38.104Z,101180.72
2019-05-12T02:21:03.066Z,101187.09
2019-05-12T02:23:29.826Z,101190.19
2019-05-12T02:25:58.537Z,101193.09
2019-05-12T02:28:23.508Z,101196.93
2019-05-12T02:30:50.554Z,101201.78
2019-05-12T02:33:17.142Z,101206.95
2019-05-12T02:35:44.501Z,101212.39
2019-05-12T02:38:10.756Z,101215.91
2019-05-12T02:40:37.595Z,101224.16
2019-05-12T02:43:05.638Z,101217.89
2019-05-12T02:45:31.229Z,101218.28
2019-05-12T02:47:58.046Z,101229.25
2019-05-12T02:50:35.085Z,101232.83
2019-05-12T02:52:58.747Z,101233.84
2019-05-12T02:55:25.855Z,101242.64
2019-05-12T02:57:55.005Z,101246.42
2019-05-12T03:00:19.150Z,101249.11
2019-05-12T03:02:45.957Z,101252.44
2019-05-12T03:05:14.815Z,101253.17
2019-05-12T03:07:39.558Z,101251.69
2019-05-12T03:10:06.632Z,101255.38
2019-05-12T03:12:34.435Z,101263.42
2019-05-12T03:15:00.276Z,101271.61
2019-05-12T03:17:27.074Z,101272.70
2019-05-12T03:19:55.680Z,101283.84
2019-05-12T03:22:20.700Z,101288.22
2019-05-12T03:25:05.074Z,101287.53
2019-05-12T03:27:17.430Z,101291.34
2019-05-12T03:29:41.115Z,101295.36
2019-05-12T03:32:08.734Z,101302.55
2019-05-12T03:34:38.387Z,101307.62
2019-05-12T03:37:07.096Z,101312.27
2019-05-12T03:39:28.327Z,101306.75
2019-05-12T03:41:55.148Z,101316.41
2019-05-12T03:44:25.003Z,101321.59
2019-05-12T03:46:48.759Z,101317.52
2019-05-12T03:49:15.777Z,101328.93
2019-05-12T03:51:45.326Z,101339.46
2019-05-12T03:54:09.180Z,101339.91
2019-05-12T03:56:35.988Z,101348.32
2019-05-12T03:59:04.802Z,101351.53
2019-05-12T04:01:30.259Z,101352.47
2019-05-12T04:03:57.075Z,101354.02
2019-05-12T04:06:24.724Z,101358.29
2019-05-12T04:08:50.699Z,101362.56
2019-05-12T04:11:17.633Z,101366.16
2019-05-12T04:13:45.129Z,101365.69
2019-05-12T04:16:11.309Z,101369.02
2019-05-12T04:18:38.100Z,101372.94
2019-05-12T04:21:05.710Z,101376.11
2019-05-12T04:23:34.707Z,101370.64
2019-05-12T04:26:08.670Z,101374.28
2019-05-12T04:28:25.336Z,101374.55
2019-05-12T04:30:54.557Z,101375.02
2019-05-12T04:33:19.048Z,101383.95
2019-05-12T04:35:45.856Z,101392.20
2019-05-12T04:38:14.906Z,101386.01
2019-05-12T04:40:39.483Z,101397.09
2019-05-12T04:43:06.945Z,101407.80
2019-05-12T04:45:34.718Z,101411.58
2019-05-12T04:47:59.896Z,101414.36
2019-05-12T04:50:26.708Z,101416.47
2019-05-12T04:52:54.912Z,101419.73
2019-05-12T04:55:20.392Z,101427.28
2019-05-12T04:57:47.206Z,101430.80
2019-05-12T05:00:15.891Z,101431.00
2019-05-12T05:02:40.832Z,101440.87
2019-05-12T05:05:07.646Z,101449.11
2019-05-12T05:07:35.859Z,101455.58
2019-05-12T05:10:04.488Z,101459.54
2019-05-12T05:12:28.147Z,101458.90
2019-05-12T05:14:55.001Z,101465.00
2019-05-12T05:17:24.205Z,101465.16
2019-05-12T05:19:48.574Z,101471.01
2019-05-12T05:22:15.396Z,101474.16
2019-05-12T05:24:44.311Z,101478.67
2019-05-12T05:27:09.018Z,101482.72
2019-05-12T05:29:37.210Z,101491.80
2019-05-12T05:32:03.502Z,101497.48
2019-05-12T05:34:29.486Z,101504.80
2019-05-12T05:37:01.378Z,101501.81
2019-05-12T05:39:24.289Z,101508.53
2019-05-12T05:41:51.174Z,101512.25
2019-05-12T05:44:16.738Z,101514.42
2019-05-12T05:46:48.160Z,101515.15
2019-05-12T05:49:10.330Z,101519.84
2019-05-12T05:51:39.478Z,101525.60
2019-05-12T05:54:04.117Z,101534.40
2019-05-12T05:56:39.889Z,101535.70
2019-05-12T05:58:57.614Z,101534.42
2019-05-12T06:01:24.682Z,101532.22
2019-05-12T06:03:53.160Z,101543.62
2019-05-12T06:06:18.098Z,101540.34
2019-05-12T06:08:56.474Z,101548.75
2019-05-12T06:11:28.220Z,101547.16
2019-05-12T06:13:50.143Z,101549.73
2019-05-12T06:16:20.627Z,101551.59
2019-05-12T06:18:44.096Z,101549.10
2019-05-12T06:21:10.526Z,101556.78
2019-05-12T06:23:39.241Z,101558.44
2019-05-12T06:26:04.767Z,101562.08
2019-05-12T06:28:36.198Z,101562.95
2019-05-12T06:30:58.286Z,101568.35
2019-05-12T06:33:31.313Z,101564.04
2019-05-12T06:35:51.374Z,101561.30
2019-05-12T06:38:18.182Z,101567.59
2019-05-12T06:40:45.592Z,101571.41
2019-05-12T06:43:13.938Z,101584.27
2019-05-12T06:45:42.631Z,101589.56
2019-05-12T06:48:05.386Z,101584.89
2019-05-12T06:50:36.971Z,101582.49
2019-05-12T06:52:59.361Z,101583.55
2019-05-12T06:55:28.536Z,101588.92
2019-05-12T06:57:53.989Z,101599.14
2019-05-12T07:00:22.223Z,101584.33
2019-05-12T07:02:52.352Z,101593.11
2019-05-12T07:05:14.646Z,101610.78
2019-05-12T07:07:46.130Z,101591.97
2019-05-12T07:10:11.703Z,101603.27
2019-05-12T07:12:43.627Z,101618.31
2019-05-12T07:15:00.638Z,101607.45
2019-05-12T07:17:35.451Z,101626.69
2019-05-12T07:19:59.857Z,101622.91
2019-05-12T07:22:31.798Z,101637.33
2019-05-12T07:24:54.802Z,101645.32
2019-05-12T07:27:33.754Z,101642.98
2019-05-12T07:29:47.081Z,101656.42
2019-05-12T07:32:16.460Z,101658.11
2019-05-12T07:34:40.690Z,101647.88
2019-05-12T07:37:07.498Z,101650.06
2019-05-12T07:39:39.313Z,101666.12
2019-05-12T07:42:03.492Z,101663.78
2019-05-12T07:44:34.397Z,101665.50
2019-05-12T07:46:54.978Z,101667.87
2019-05-12T07:49:32.419Z,101666.64
2019-05-12T07:51:50.142Z,101677.34
2019-05-12T07:54:15.366Z,101684.34
2019-05-12T07:56:44.236Z,101678.64
2019-05-12T07:59:08.954Z,101682.77
2019-05-12T08:01:44.108Z,101683.16
2019-05-12T08:04:04.377Z,101691.43
2019-05-12T08:06:34.705Z,101687.78
2019-05-12T08:08:58.998Z,101701.59
2019-05-12T08:11:23.581Z,101699.69
2019-05-12T08:13:49.739Z,101706.39
2019-05-12T08:16:19.602Z,101713.54
2019-05-12T08:18:44.483Z,101711.20
2019-05-12T08:21:10.114Z,101711.12
2019-05-12T08:23:38.047Z,101715.80
2019-05-12T08:26:12.253Z,101719.81
2019-05-12T08:28:36.185Z,101731.87
2019-05-12T08:30:57.330Z,101724.81
2019-05-12T08:33:24.170Z,101726.67
2019-05-12T08:35:50.982Z,101724.91
2019-05-12T08:38:17.794Z,101726.38
2019-05-12T08:40:50.668Z,101733.59
2019-05-12T08:43:11.512Z,101737.02
2019-05-12T08:45:38.322Z,101729.39
2019-05-12T08:48:10.240Z,101743.91
2019-05-12T08:50:35.802Z,101742.14
2019-05-12T08:52:59.104Z,101739.81
2019-05-12T08:55:31.275Z,101743.83
2019-05-12T08:57:54.160Z,101763.08
2019-05-12T09:00:31.302Z,101759.23
2019-05-12T09:02:58.124Z,101755.83
2019-05-12T09:05:28.062Z,101753.06
2019-05-12T09:07:53.987Z,101765.15
2019-05-12T09:10:18.786Z,101754.31
2019-05-12T09:12:45.570Z,101763.13
2019-05-12T09:15:13.612Z,101758.16
2019-05-12T09:17:51.504Z,101775.86
2019-05-12T09:20:08.377Z,101766.47
2019-05-12T09:22:34.291Z,101772.12
2019-05-12T09:25:06.185Z,101767.46
2019-05-12T09:27:26.514Z,101790.59
2019-05-12T09:29:53.998Z,101778.92
2019-05-12T09:32:20.082Z,101789.86
2019-05-12T09:34:52.589Z,101789.30
2019-05-12T09:37:14.241Z,101794.89
2019-05-12T09:39:43.601Z,101784.95
2019-05-12T09:42:07.298Z,101789.40
2019-05-12T09:44:34.242Z,101788.86
2019-05-12T09:47:00.962Z,101798.78
2019-05-12T09:49:30.920Z,101793.70
2019-05-12T09:51:54.558Z,101800.98
2019-05-12T09:54:26.200Z,101797.41
2019-05-12T09:56:50.096Z,101797.84
2019-05-12T09:59:22.778Z,101802.47
2019-05-12T10:01:45.750Z,101793.01
2019-05-12T10:04:10.275Z,101806.05
2019-05-12T10:06:35.366Z,101805.27
2019-05-12T10:09:03.473Z,101801.46
2019-05-12T10:11:29.259Z,101802.09
2019-05-12T10:14:00.297Z,101790.36
2019-05-12T10:16:24.121Z,101800.19
2019-05-12T10:18:52.792Z,101799.09
2019-05-12T10:21:17.630Z,101799.33
2019-05-12T10:23:43.621Z,101799.89
2019-05-12T10:26:11.680Z,101808.25
2019-05-12T10:28:36.822Z,101815.35
2019-05-12T10:31:04.144Z,101793.63
2019-05-12T10:33:30.437Z,101812.19
2019-05-12T10:35:59.285Z,101817.04
2019-05-12T10:38:24.232Z,101808.63
2019-05-12T10:40:50.827Z,101809.82
2019-05-12T10:43:17.618Z,101806.48
2019-05-12T10:45:44.411Z,101800.50
2019-05-12T10:48:11.206Z,101815.28
2019-05-12T10:50:38.003Z,101810.55
2019-05-12T10:53:04.913Z,101815.31
2019-05-12T10:55:33.543Z,101823.37
2019-05-12T10:58:01.544Z,101816.90
2019-05-12T11:00:26.884Z,101824.62
2019-05-12T11:02:53.473Z,101821.86
2019-05-12T11:05:25.464Z,101815.12
2019-05-12T11:07:45.607Z,101826.13
2019-05-12T11:10:19.459Z,101810.66
2019-05-12T11:12:39.198Z,101808.55
2019-05-12T11:15:06.803Z,101824.05
2019-05-12T11:17:40.224Z,101827.63
2019-05-12T11:20:05.496Z,101812.91
2019-05-12T11:22:33.334Z,101801.08
2019-05-12T11:24:59.082Z,101801.20
2019-05-12T11:27:25.891Z,101798.28
2019-05-12T11:29:53.428Z,101804.35
2019-05-12T11:32:19.486Z,101802.60
2019-05-12T11:34:46.295Z,101804.26
2019-05-12T11:37:13.926Z,101811.59
2019-05-12T11:39:44.610Z,101807.12
2019-05-12T11:42:07.117Z,101814.54
2019-05-12T11:44:33.938Z,101810.30
2019-05-12T11:47:00.738Z,101820.77
2019-05-12T11:49:28.140Z,101799.83
2019-05-12T11:51:54.567Z,101795.81
2019-05-12T11:54:24.079Z,101815.41
2019-05-12T11:56:50.335Z,101818.97
2019-05-12T11:59:15.265Z,101808.06
2019-05-12T12:01:47.467Z,101798.47
2019-05-12T12:04:08.846Z,101815.50
2019-05-12T12:06:35.642Z,101809.39
2019-05-12T12:09:03.934Z,101800.91
2019-05-12T12:11:29.470Z,101817.27
2019-05-12T12:14:00.296Z,101812.54
2019-05-12T12:16:23.717Z,101822.66
2019-05-12T12:18:59.573Z,101831.31
2019-05-12T12:21:16.653Z,101833.34
2019-05-12T12:23:48.794Z,101834.05
2019-05-12T12:26:10.254Z,101838.95
2019-05-12T12:28:37.053Z,101834.27
2019-05-12T12:31:07.614Z,101813.16
2019-05-12T12:33:38.648Z,101825.33
2019-05-12T12:36:00.679Z,101831.26
2019-05-12T12:38:25.385Z,101829.53
2019-05-12T12:40:53.569Z,101817.69
2019-05-12T12:43:18.994Z,101814.81
2019-05-12T12:45:49.435Z,101812.78
2019-05-12T12:48:19.335Z,101801.72
2019-05-12T12:50:44.559Z,101806.85
2019-05-12T12:53:09.846Z,101812.03
2019-05-12T12:55:38.054Z,101812.58
2019-05-12T12:58:03.496Z,101826.58
2019-05-12T13:00:40.696Z,101803.98
2019-05-12T13:02:57.053Z,101783.88
2019-05-12T13:05:24.005Z,101802.81
2019-05-12T13:07:50.647Z,101795.34
2019-05-12T13:10:17.478Z,101791.19
2019-05-12T13:12:44.274Z,101793.81
2019-05-12T13:15:11.074Z,101807.15
2019-05-12T13:17:41.743Z,101789.00
2019-05-12T13:20:04.746Z,101800.34
2019-05-12T13:22:33.649Z,101809.97
2019-05-12T13:25:04.339Z,101798.52
2019-05-12T13:27:29.059Z,101807.33
2019-05-12T13:29:53.741Z,101794.23
2019-05-12T13:32:25.842Z,101782.45
2019-05-12T13:34:45.890Z,101782.70
2019-05-12T13:37:15.450Z,101783.55
2019-05-12T13:39:39.514Z,101798.86
2019-05-12T13:42:06.309Z,101765.53
2019-05-12T13:44:38.736Z,101793.11
2019-05-12T13:46:59.921Z,101772.92
2019-05-12T13:49:29.942Z,101784.02
2019-05-12T13:51:53.882Z,101773.89
2019-05-12T13:54:26.053Z,101767.38
2019-05-12T13:56:47.170Z,101786.70
2019-05-12T13:59:20.569Z,101791.39
2019-05-12T14:01:42.834Z,101802.17
2019-05-12T14:04:07.599Z,101791.76
2019-05-12T14:06:37.857Z,101779.70
2019-05-12T14:09:01.202Z,101781.88
2019-05-12T14:11:28.082Z,101777.79
2019-05-12T14:13:54.874Z,101772.80
2019-05-12T14:16:23.846Z,101788.00
2019-05-12T14:18:51.068Z,101774.70
2019-05-12T14:21:15.263Z,101757.59
2019-05-12T14:23:43.653Z,101764.19
2019-05-12T14:26:09.430Z,101760.23
2019-05-12T14:28:39.420Z,101769.30
2019-05-12T14:31:02.758Z,101781.20
2019-05-12T14:33:29.806Z,101772.51
2019-05-12T14:35:56.354Z,101759.63
2019-05-12T14:38:25.420Z,101757.48
2019-05-12T14:40:50.000Z,101785.96
2019-05-12T14:43:21.268Z,101781.97
2019-05-12T14:45:44.092Z,101780.03
2019-05-12T14:48:10.454Z,101793.55
2019-05-12T14:50:37.250Z,101788.27
2019-05-12T14:53:04.046Z,101802.12
2019-05-12T14:55:30.916Z,101778.94
2019-05-12T14:57:57.718Z,101773.14
2019-05-12T15:00:24.522Z,101766.78
2019-05-12T15:02:51.414Z,101775.55
2019-05-12T15:05:18.186Z,101779.28
2019-05-12T15:07:51.798Z,101783.55
2019-05-12T15:10:13.994Z,101768.75
2019-05-12T15:12:38.704Z,101775.22
2019-05-12T15:15:09.193Z,101785.20
2019-05-12T15:17:33.759Z,101779.90
2019-05-12T15:20:00.390Z,101766.75
2019-05-12T15:22:26.155Z,101784.49
2019-05-12T15:24:57.001Z,101787.62
2019-05-12T15:27:19.774Z,101775.97
2019-05-12T15:29:49.913Z,101779.22
2019-05-12T15:32:15.278Z,101794.18
2019-05-12T15:34:40.314Z,101776.77
2019-05-12T15:37:07.174Z,101793.76
2019-05-12T15:39:33.991Z,101783.64
2019-05-12T15:42:00.794Z,101796.70
2019-05-12T15:44:31.324Z,101792.56
2019-05-12T15:46:54.404Z,101788.92
2019-05-12T15:49:21.212Z,101790.38
2019-05-12T15:51:54.086Z,101799.45
2019-05-12T15:54:14.938Z,101801.10
2019-05-12T15:56:41.814Z,101809.23
2019-05-12T15:59:08.625Z,101817.59
2019-05-12T16:01:35.434Z,101796.48
2019-05-12T16:04:03.676Z,101800.97
2019-05-12T16:06:29.126Z,101789.46
2019-05-12T16:08:56.206Z,101784.65
2019-05-12T16:11:24.413Z,101794.95
2019-05-12T16:13:54.662Z,101813.02
2019-05-12T16:16:16.613Z,101798.97
2019-05-12T16:18:48.937Z,101783.80
2019-05-12T16:21:10.306Z,101789.34
2019-05-12T16:23:37.183Z,101794.44
2019-05-12T16:26:08.080Z,101792.13
2019-05-12T16:28:30.791Z,101781.92
2019-05-12T16:30:58.794Z,101802.54
2019-05-12T16:33:24.390Z,101799.05
2019-05-12T16:35:51.344Z,101788.94
2019-05-12T16:38:20.037Z,101792.91
2019-05-12T16:40:49.584Z,101786.30
2019-05-12T16:43:14.300Z,101785.47
2019-05-12T16:45:38.918Z,101790.49
2019-05-12T16:48:11.317Z,101786.23
2019-05-12T16:50:34.499Z,101773.22
2019-05-12T16:52:59.415Z,101783.98
2019-05-12T16:55:26.222Z,101783.95
2019-05-12T16:57:56.002Z,101785.36
2019-05-12T17:00:19.930Z,101775.76
2019-05-12T17:02:53.638Z,101775.27
2019-05-12T17:05:20.212Z,101772.05
2019-05-12T17:07:40.344Z,101781.95
2019-05-12T17:10:11.507Z,101780.27
2019-05-12T17:12:37.109Z,101792.19
2019-05-12T17:15:00.869Z,101787.38
2019-05-12T17:17:28.522Z,101795.67
2019-05-12T17:19:55.376Z,101784.55
2019-05-12T17:22:23.938Z,101786.92
2019-05-12T17:24:49.109Z,101780.88
2019-05-12T17:27:23.872Z,101776.74
2019-05-12T17:29:43.519Z,101779.11
2019-05-12T17:32:09.606Z,101787.61
2019-05-12T17:34:40.366Z,101787.06
2019-05-12T17:37:04.011Z,101784.23
2019-05-12T17:39:37.308Z,101792.71
2019-05-12T17:41:56.898Z,101783.92
2019-05-12T17:44:23.735Z,101786.00
2019-05-12T17:46:50.623Z,101794.80
2019-05-12T17:49:25.582Z,101782.54
2019-05-12T17:51:44.306Z,101778.75
2019-05-12T17:54:15.690Z,101788.95
2019-05-12T17:56:38.828Z,101796.57
2019-05-12T17:59:04.860Z,101801.48
2019-05-12T18:01:35.405Z,101800.05
2019-05-12T18:03:58.589Z,101813.05
2019-05-12T18:06:26.740Z,101832.77
2019-05-12T18:08:53.368Z,101849.34
2019-05-12T18:11:19.062Z,101849.89
2019-05-12T18:13:45.871Z,101854.78
2019-05-12T18:16:20.420Z,101848.47
2019-05-12T18:18:39.542Z,101855.42
2019-05-12T18:21:06.365Z,101863.55
2019-05-12T18:23:34.527Z,101865.81
2019-05-12T18:26:02.986Z,101873.78
2019-05-12T18:28:29.442Z,101874.37
2019-05-12T18:30:54.726Z,101883.22
2019-05-12T18:33:32.596Z,101882.25
2019-05-12T18:35:48.374Z,101880.13
2019-05-12T18:38:21.536Z,101888.31
2019-05-12T18:40:42.036Z,101889.36
2019-05-12T18:43:08.870Z,101894.95
2019-05-12T18:45:35.688Z,101886.62
2019-05-12T18:48:10.151Z,101894.36
2019-05-12T18:50:31.393Z,101909.78
2019-05-12T18:52:56.134Z,101914.43
2019-05-12T18:55:23.542Z,101926.02
2019-05-12T18:57:50.140Z,101923.14
2019-05-12T19:00:17.378Z,101928.95
2019-05-12T19:02:44.326Z,101935.20
2019-05-12T19:05:12.966Z,101925.87
2019-05-12T19:07:39.963Z,101926.34
2019-05-12T19:10:05.150Z,101936.50
2019-05-12T19:12:35.217Z,101944.56
2019-05-12T19:14:58.754Z,101945.94
2019-05-12T19:17:25.553Z,101954.69
2019-05-12T19:19:59.623Z,101958.80
2019-05-12T19:22:19.138Z,101958.50
2019-05-12T19:24:50.146Z,101957.37
2019-05-12T19:27:18.023Z,101953.81
2019-05-12T19:29:46.647Z,101962.99
2019-05-12T19:32:06.518Z,101968.89
2019-05-12T19:34:37.378Z,101969.99
2019-05-12T19:37:00.151Z,101982.09
2019-05-12T19:39:26.945Z,101978.05
2019-05-12T19:41:54.322Z,101978.50
2019-05-12T19:44:26.359Z,101991.19
2019-05-12T19:46:49.466Z,102001.27
2019-05-12T19:49:14.150Z,101999.68
2019-05-12T19:51:41.071Z,101998.81
2019-05-12T19:54:07.883Z,101996.35
2019-05-12T19:56:39.011Z,102004.89
2019-05-12T19:59:01.494Z,102012.61
2019-05-12T20:01:32.894Z,102004.16
2019-05-12T20:03:55.851Z,101997.68
2019-05-12T20:06:24.159Z,102007.02
2019-05-12T20:08:55.689Z,102009.98
2019-05-12T20:11:20.026Z,102002.23
2019-05-12T20:13:44.501Z,101994.25
2019-05-12T20:16:11.482Z,102007.48
2019-05-12T20:18:43.103Z,101995.13
2019-05-12T20:21:04.418Z,101998.67
2019-05-12T20:23:30.306Z,101998.12
2019-05-12T20:25:57.122Z,101994.56
2019-05-12T20:28:24.413Z,101991.05
2019-05-12T20:30:54.395Z,101992.81
2019-05-12T20:33:17.582Z,102003.30
2019-05-12T20:35:48.939Z,102006.45
2019-05-12T20:38:11.191Z,102016.63
2019-05-12T20:40:39.888Z,102023.63
2019-05-12T20:43:08.307Z,102025.98
2019-05-12T20:45:40.496Z,102024.71
2019-05-12T20:48:00.609Z,102028.98
2019-05-12T20:50:32.930Z,102025.11
2019-05-12T20:52:58.879Z,102025.67
2019-05-12T20:55:23.293Z,102016.85
2019-05-12T20:57:52.539Z,102013.47
2019-05-12T21:00:14.787Z,102019.76
2019-05-12T21:02:44.004Z,102010.03
2019-05-12T21:05:14.861Z,102018.61
2019-05-12T21:07:35.194Z,102038.28
2019-05-12T21:10:04.066Z,102044.61
2019-05-12T21:12:29.206Z,102041.17
2019-05-12T21:15:12.375Z,102041.94
2019-05-12T21:17:39.067Z,102036.73
2019-05-12T21:19:56.923Z,102032.38
2019-05-12T21:22:16.742Z,102032.71
2019-05-12T21:24:43.876Z,102026.00
2019-05-12T21:27:18.310Z,102037.00
2019-05-12T21:29:38.334Z,102036.50
2019-05-12T21:32:12.016Z,102038.02
2019-05-12T21:34:34.388Z,102043.67
2019-05-12T21:37:04.056Z,102048.78
2019-05-12T21:39:25.586Z,102051.34
2019-05-12T21:41:54.832Z,102047.09
2019-05-12T21:44:19.250Z,102050.08
2019-05-12T21:46:57.447Z,102051.16
2019-05-12T21:49:15.566Z,102054.20
2019-05-12T21:51:40.498Z,102055.05
2019-05-12T21:54:07.327Z,102055.42
2019-05-12T21:56:37.954Z,102056.77
2019-05-12T21:59:00.952Z,102058.98
2019-05-12T22:01:27.778Z,102065.22
2019-05-12T22:04:01.957Z,102063.09
2019-05-12T22:06:24.688Z,102058.18
2019-05-12T22:08:55.475Z,102054.80
2019-05-12T22:11:15.334Z,102060.13
2019-05-12T22:13:46.894Z,102058.59
2019-05-12T22:16:08.961Z,102053.47
2019-05-12T22:18:35.776Z,102058.56
2019-05-12T22:21:06.495Z,102062.27
2019-05-12T22:23:29.410Z,102058.67
2019-05-12T22:26:00.212Z,102061.97
2019-05-12T22:28:23.905Z,102069.33
2019-05-12T22:30:49.870Z,102058.03
2019-05-12T22:33:16.683Z,102062.89
2019-05-12T22:35:44.340Z,102069.12
2019-05-12T22:38:16.623Z,102069.11
2019-05-12T22:40:37.154Z,102067.81
2019-05-12T22:43:06.951Z,102077.29
2019-05-12T22:45:36.080Z,102075.44
2019-05-12T22:47:59.119Z,102072.91
2019-05-12T22:50:27.181Z,102074.86
2019-05-12T22:52:52.983Z,102076.92
2019-05-12T22:55:21.111Z,102081.22
2019-05-12T22:57:44.797Z,102081.86
2019-05-12T23:00:13.586Z,102087.34
2019-05-12T23:02:38.417Z,102080.86
2019-05-12T23:05:05.228Z,102075.22
2019-05-12T23:07:33.128Z,102085.88
2019-05-12T23:10:00.456Z,102083.30
2019-05-12T23:12:25.694Z,102085.56
2019-05-12T23:14:54.074Z,102081.52
2019-05-12T23:17:19.359Z,102086.04
2019-05-12T23:19:51.355Z,102087.91
2019-05-12T23:22:14.206Z,102097.49
2019-05-12T23:24:40.806Z,102091.06
2019-05-12T23:27:08.848Z,102087.72
2019-05-12T23:29:33.964Z,102088.14
2019-05-12T23:32:00.825Z,102085.31
2019-05-12T23:34:27.147Z,102086.42
2019-05-12T23:36:56.863Z,102096.91
2019-05-12T23:39:20.787Z,102088.55
2019-05-12T23:41:47.630Z,102086.67
2019-05-12T23:44:14.434Z,102082.73
2019-05-12T23:46:43.603Z,102084.77
2019-05-12T23:49:08.052Z,102092.62
2019-05-12T23:51:34.851Z,102080.98
2019-05-12T23:54:03.627Z,102078.31
2019-05-12T23:56:28.466Z,102078.61
2019-05-12T23:58:55.275Z,102077.94
